Time;durP1;ratioP1;P1;durP2;ratioP2;P2;SDS_P1;SDS_P2;PMS_P1;PMS_P2;Temp;Humidity;BMP_temperature;BMP_pressure;BME280_temperature;BME280_humidity;BME280_pressure;Samples;Min_cycle;Max_cycle;Signal;HPM_P1;HPM_P2
2021/06/30 00:01:56;;;;;;;15.03;13.40;;;17.70;99.90;;;;;;5036989;28;20659;-87
2021/06/30 00:04:31;;;;;;;15.67;13.73;;;17.70;99.90;;;;;;5050428;28;20241;-85
2021/06/30 00:07:07;;;;;;;15.33;13.83;;;17.70;99.90;;;;;;5056110;28;20288;-86
2021/06/30 00:09:36;;;;;;;17.50;14.50;;;17.70;99.90;;;;;;5045638;28;20532;-86
2021/06/30 00:12:05;;;;;;;17.27;15.00;;;17.70;99.90;;;;;;5040104;28;20222;-87
2021/06/30 00:14:35;;;;;;;16.67;14.50;;;17.70;99.90;;;;;;5049775;28;20198;-86
2021/06/30 00:17:05;;;;;;;16.13;14.43;;;17.70;99.90;;;;;;5029595;28;20294;-86
2021/06/30 00:19:35;;;;;;;16.53;14.73;;;17.60;99.90;;;;;;5031461;28;21049;-86
2021/06/30 00:22:05;;;;;;;17.07;15.27;;;17.60;99.90;;;;;;5034779;28;20206;-85
2021/06/30 00:24:43;;;;;;;17.17;15.30;;;17.60;99.90;;;;;;5036221;28;20198;-85
2021/06/30 00:27:12;;;;;;;17.00;15.03;;;17.60;99.90;;;;;;5029440;28;20224;-85
2021/06/30 00:29:47;;;;;;;18.50;15.17;;;17.60;99.90;;;;;;5030467;28;20206;-86
2021/06/30 00:32:24;;;;;;;16.57;14.67;;;17.60;99.90;;;;;;5037649;28;20233;-87
2021/06/30 00:34:55;;;;;;;17.30;15.50;;;17.50;99.90;;;;;;5049543;28;20186;-86
2021/06/30 00:37:24;;;;;;;16.63;14.93;;;17.50;99.90;;;;;;5044821;28;20224;-87
2021/06/30 00:39:56;;;;;;;17.20;15.33;;;17.50;99.90;;;;;;5027915;28;20445;-83
2021/06/30 00:42:31;;;;;;;16.83;15.13;;;17.60;99.90;;;;;;5044661;28;20216;-85
2021/06/30 00:45:00;;;;;;;18.17;16.43;;;17.60;99.90;;;;;;5072270;22;20269;-87
2021/06/30 00:47:32;;;;;;;15.80;14.07;;;17.50;99.90;;;;;;5039307;28;20237;-86
2021/06/30 00:50:03;;;;;;;17.30;14.60;;;17.50;99.90;;;;;;5046107;28;20229;-85
2021/06/30 00:52:35;;;;;;;17.07;15.40;;;17.40;99.90;;;;;;5055093;28;20268;-86
2021/06/30 00:55:07;;;;;;;15.63;14.20;;;17.40;99.90;;;;;;5056807;28;20222;-86
2021/06/30 00:57:37;;;;;;;18.33;16.20;;;17.30;99.90;;;;;;5061343;28;20232;-86
2021/06/30 01:00:11;;;;;;;17.00;15.33;;;17.40;99.90;;;;;;5058165;28;20216;-86
2021/06/30 01:02:42;;;;;;;17.33;15.57;;;17.40;99.90;;;;;;5054965;28;20234;-86
2021/06/30 01:05:24;;;;;;;17.90;16.00;;;17.30;99.90;;;;;;5062137;28;20244;-84
2021/06/30 01:08:29;;;;;;;18.13;16.43;;;17.30;99.90;;;;;;5175241;22;20221;-85
2021/06/30 01:11:31;;;;;;;21.33;16.90;;;17.30;99.90;;;;;;5063475;28;20255;-84
2021/06/30 01:14:02;;;;;;;18.30;15.57;;;17.30;99.90;;;;;;5061603;28;20231;-85
2021/06/30 01:16:34;;;;;;;18.67;15.77;;;17.30;99.90;;;;;;5061280;28;20209;-86
2021/06/30 01:19:03;;;;;;;16.70;15.10;;;17.30;99.90;;;;;;5069812;28;20356;-87
2021/06/30 01:21:34;;;;;;;18.23;16.43;;;17.20;99.90;;;;;;5065396;28;20473;-88
2021/06/30 01:24:05;;;;;;;19.10;17.20;;;17.20;99.90;;;;;;5056289;28;20233;-86
2021/06/30 01:26:47;;;;;;;18.30;15.93;;;17.10;99.90;;;;;;5057191;28;20248;-85
2021/06/30 01:29:16;;;;;;;19.37;17.53;;;17.20;99.90;;;;;;5056585;28;20194;-85
2021/06/30 01:31:51;;;;;;;19.27;17.33;;;17.10;99.90;;;;;;5062784;28;20201;-86
2021/06/30 01:34:20;;;;;;;18.67;16.67;;;17.10;99.90;;;;;;5062173;28;20214;-86
2021/06/30 01:36:51;;;;;;;18.23;16.17;;;17.20;99.90;;;;;;5045819;28;20205;-85
2021/06/30 01:39:36;;;;;;;17.73;15.93;;;17.20;99.90;;;;;;5051138;28;20209;-85
2021/06/30 01:42:06;;;;;;;20.00;17.97;;;17.20;99.90;;;;;;5051852;28;20657;-84
2021/06/30 01:44:35;;;;;;;18.33;16.63;;;17.10;99.90;;;;;;5057632;28;20186;-85
2021/06/30 01:47:03;;;;;;;18.43;16.67;;;17.10;99.90;;;;;;5061683;28;20233;-86
2021/06/30 01:49:32;;;;;;;18.70;16.87;;;17.10;99.90;;;;;;5068093;28;20190;-86
2021/06/30 01:52:01;;;;;;;19.37;17.47;;;17.10;99.90;;;;;;5060279;28;20328;-85
2021/06/30 01:54:31;;;;;;;19.17;17.27;;;17.10;99.90;;;;;;5049066;28;20287;-85
2021/06/30 01:56:59;;;;;;;19.30;17.50;;;17.10;99.90;;;;;;5035560;28;20875;-86
2021/06/30 01:59:29;;;;;;;18.10;16.23;;;17.10;99.90;;;;;;5034602;28;20214;-85
2021/06/30 02:01:58;;;;;;;19.03;17.20;;;17.10;99.90;;;;;;5037419;28;20285;-84
2021/06/30 02:04:27;;;;;;;18.93;17.20;;;17.10;99.90;;;;;;5042005;28;20277;-85
2021/06/30 02:06:57;;;;;;;20.67;18.50;;;17.00;99.90;;;;;;5041058;28;20206;-88
2021/06/30 02:09:26;;;;;;;19.83;17.83;;;17.00;99.90;;;;;;5042068;28;20256;-86
2021/06/30 02:11:57;;;;;;;18.77;17.07;;;17.00;99.90;;;;;;5038048;28;20259;-85
2021/06/30 02:14:26;;;;;;;19.17;17.37;;;16.90;99.90;;;;;;5055006;28;20236;-85
2021/06/30 02:16:59;;;;;;;19.77;17.90;;;16.90;99.90;;;;;;5038449;28;20214;-85
2021/06/30 02:19:28;;;;;;;20.47;18.43;;;16.80;99.90;;;;;;5040457;28;20327;-85
2021/06/30 02:21:58;;;;;;;19.33;17.53;;;16.80;99.90;;;;;;5039378;28;20297;-85
2021/06/30 02:24:29;;;;;;;19.63;17.87;;;16.70;99.90;;;;;;5048298;28;20544;-85
2021/06/30 02:26:59;;;;;;;21.13;19.00;;;16.70;99.90;;;;;;5049196;28;20237;-86
2021/06/30 02:29:28;;;;;;;19.67;17.77;;;16.70;99.90;;;;;;5046712;28;20206;-84
2021/06/30 02:31:59;;;;;;;19.47;17.47;;;16.70;99.90;;;;;;5055843;28;20190;-87
2021/06/30 02:34:29;;;;;;;20.23;18.23;;;16.80;99.90;;;;;;5063641;28;20202;-86
2021/06/30 02:36:59;;;;;;;19.90;17.93;;;16.90;99.90;;;;;;5036066;28;20212;-84
2021/06/30 02:39:28;;;;;;;19.67;17.87;;;17.00;99.90;;;;;;5057520;28;20213;-84
2021/06/30 02:42:00;;;;;;;19.77;17.97;;;17.20;99.90;;;;;;5054057;28;20194;-87
2021/06/30 02:44:29;;;;;;;20.33;18.40;;;17.30;99.90;;;;;;5050369;28;20234;-86
2021/06/30 02:46:58;;;;;;;21.77;19.63;;;17.40;99.80;;;;;;5034597;28;20731;-86
2021/06/30 02:49:27;;;;;;;24.07;21.57;;;17.50;98.90;;;;;;5040914;28;20599;-86
2021/06/30 02:51:55;;;;;;;22.53;20.37;;;17.60;98.30;;;;;;5034849;28;20226;-87
2021/06/30 02:54:30;;;;;;;52.93;48.13;;;17.80;97.70;;;;;;5037300;28;20205;-85
2021/06/30 02:57:00;;;;;;;48.77;44.20;;;17.90;95.60;;;;;;5033960;28;20213;-87
2021/06/30 02:59:28;;;;;;;36.50;32.93;;;18.00;95.10;;;;;;5036777;28;20195;-85
2021/06/30 03:01:57;;;;;;;23.50;21.23;;;18.20;94.30;;;;;;5036155;28;20230;-86
2021/06/30 03:04:26;;;;;;;19.60;17.67;;;18.30;94.50;;;;;;5038598;28;20206;-84
2021/06/30 03:06:54;;;;;;;17.93;16.27;;;18.50;94.10;;;;;;5031768;28;20213;-87
2021/06/30 03:09:24;;;;;;;17.03;15.33;;;18.70;93.50;;;;;;5043137;28;20664;-84
2021/06/30 03:11:53;;;;;;;16.30;14.83;;;18.80;92.10;;;;;;5036953;28;20264;-87
2021/06/30 03:14:28;;;;;;;17.07;15.37;;;18.90;91.70;;;;;;5037100;28;20218;-83
2021/06/30 03:17:02;;;;;;;16.67;15.17;;;19.00;91.60;;;;;;5050205;28;20202;-85
2021/06/30 03:19:30;;;;;;;16.37;14.87;;;19.00;91.70;;;;;;5046292;28;20221;-83
2021/06/30 03:22:04;;;;;;;16.07;14.57;;;18.90;91.60;;;;;;5035216;28;20217;-85
2021/06/30 03:24:33;;;;;;;15.87;14.47;;;19.00;91.90;;;;;;5037615;28;20211;-86
2021/06/30 03:27:02;;;;;;;16.87;15.27;;;19.10;92.00;;;;;;5035087;28;20466;-86
2021/06/30 03:29:37;;;;;;;15.70;14.13;;;19.30;91.60;;;;;;5041897;28;20233;-87
2021/06/30 03:32:06;;;;;;;15.70;14.10;;;19.60;91.40;;;;;;5041141;28;20275;-85
2021/06/30 03:34:35;;;;;;;15.23;13.83;;;19.80;90.90;;;;;;5058516;28;20214;-85
2021/06/30 03:37:10;;;;;;;15.90;14.40;;;19.90;90.30;;;;;;5051218;28;20198;-84
2021/06/30 03:39:43;;;;;;;16.17;14.67;;;19.80;89.70;;;;;;5059416;28;20269;-87
2021/06/30 03:42:17;;;;;;;15.87;14.27;;;20.00;89.90;;;;;;5034787;28;20216;-87
2021/06/30 03:44:47;;;;;;;15.17;13.53;;;20.10;89.70;;;;;;5060292;28;20194;-86
2021/06/30 03:47:16;;;;;;;16.03;14.53;;;20.20;89.40;;;;;;5060593;28;20225;-86
2021/06/30 03:49:45;;;;;;;13.83;12.53;;;20.30;89.50;;;;;;5059301;28;20238;-88
2021/06/30 03:52:18;;;;;;;14.80;12.70;;;20.30;89.30;;;;;;5065316;28;20187;-85
2021/06/30 03:54:48;;;;;;;13.00;11.70;;;20.30;89.20;;;;;;5067219;28;20186;-86
2021/06/30 03:57:17;;;;;;;12.23;11.03;;;20.50;88.50;;;;;;5063407;28;20245;-86
2021/06/30 03:59:48;;;;;;;11.07;10.07;;;20.60;88.10;;;;;;5052984;28;20672;-86
2021/06/30 04:02:21;;;;;;;13.33;11.37;;;20.60;87.80;;;;;;5040181;28;20212;-87
2021/06/30 04:04:50;;;;;;;10.60;9.60;;;20.70;87.70;;;;;;5054434;28;20181;-86
2021/06/30 04:07:18;;;;;;;11.37;10.30;;;20.70;87.00;;;;;;5059331;28;20216;-86
2021/06/30 04:09:47;;;;;;;11.33;10.33;;;20.80;86.70;;;;;;5061543;28;20222;-86
2021/06/30 04:12:16;;;;;;;10.43;9.53;;;20.80;86.60;;;;;;5044558;28;20202;-88
2021/06/30 04:14:52;;;;;;;10.80;9.80;;;20.90;86.70;;;;;;5038183;28;20223;-85
2021/06/30 04:17:20;;;;;;;11.60;10.40;;;20.90;86.80;;;;;;5035116;28;20246;-84
2021/06/30 04:19:49;;;;;;;11.43;10.33;;;20.90;87.10;;;;;;5039472;28;20190;-83
2021/06/30 04:22:18;;;;;;;13.33;10.43;;;21.00;87.00;;;;;;5041025;28;20301;-84
2021/06/30 04:24:47;;;;;;;11.27;10.17;;;21.10;87.00;;;;;;5037061;28;20637;-86
2021/06/30 04:27:21;;;;;;;11.00;9.87;;;21.10;86.80;;;;;;5042515;28;20205;-88
2021/06/30 04:29:52;;;;;;;10.30;9.30;;;21.10;86.90;;;;;;5047650;28;20234;-85
2021/06/30 04:32:21;;;;;;;12.23;9.93;;;21.20;87.20;;;;;;5040092;28;20212;-84
2021/06/30 04:34:50;;;;;;;11.03;9.87;;;21.20;87.40;;;;;;5041968;28;20198;-86
2021/06/30 04:37:25;;;;;;;10.10;9.30;;;21.20;87.90;;;;;;5042827;28;20351;-86
2021/06/30 04:40:00;;;;;;;10.73;9.83;;;21.10;88.00;;;;;;5044736;28;20284;-87
2021/06/30 04:42:29;;;;;;;11.07;10.10;;;21.10;88.10;;;;;;5038596;28;20212;-86
2021/06/30 04:45:07;;;;;;;11.63;10.47;;;21.20;87.80;;;;;;5039647;28;20504;-86
2021/06/30 04:47:36;;;;;;;12.27;10.97;;;21.20;87.60;;;;;;5033591;28;20280;-86
2021/06/30 04:50:06;;;;;;;14.10;12.60;;;21.20;87.90;;;;;;5024352;28;20238;-87
2021/06/30 04:52:35;;;;;;;14.10;12.53;;;21.20;88.30;;;;;;5036928;28;20221;-87
2021/06/30 04:55:04;;;;;;;14.47;12.67;;;21.10;88.80;;;;;;5045179;28;20680;-84
2021/06/30 04:57:35;;;;;;;14.80;13.20;;;21.10;89.40;;;;;;5055438;28;20194;-85
2021/06/30 05:00:08;;;;;;;18.20;14.57;;;21.10;89.40;;;;;;5054791;28;20202;-84
2021/06/30 05:02:38;;;;;;;27.60;18.53;;;21.00;89.60;;;;;;5049994;28;20209;-86
2021/06/30 05:05:14;;;;;;;33.17;19.90;;;20.90;90.10;;;;;;5056243;28;20197;-86
2021/06/30 05:07:49;;;;;;;24.27;16.67;;;20.80;90.30;;;;;;5048680;28;20252;-85
2021/06/30 05:10:18;;;;;;;19.87;14.83;;;20.90;90.40;;;;;;5051112;28;20313;-87
2021/06/30 05:12:47;;;;;;;17.70;13.67;;;20.70;90.40;;;;;;5043526;28;20202;-86
2021/06/30 05:15:17;;;;;;;15.30;13.70;;;20.60;90.50;;;;;;5038040;28;20626;-85
2021/06/30 05:17:46;;;;;;;14.83;13.23;;;20.50;90.60;;;;;;5049889;28;20509;-86
2021/06/30 05:20:21;;;;;;;20.10;14.03;;;20.50;90.50;;;;;;5042315;28;20217;-89
2021/06/30 05:22:51;;;;;;;17.70;14.03;;;20.50;90.70;;;;;;5049038;28;20222;-88
2021/06/30 05:25:24;;;;;;;22.07;13.00;;;20.50;90.90;;;;;;5045016;28;20222;-84
2021/06/30 05:27:54;;;;;;;18.33;12.43;;;20.50;90.90;;;;;;5034663;28;20217;-89
2021/06/30 05:30:27;;;;;;;15.57;12.47;;;20.70;90.90;;;;;;5050896;28;20230;-87
2021/06/30 05:33:01;;;;;;;17.43;13.20;;;20.70;90.90;;;;;;5055069;28;20198;-88
2021/06/30 05:35:32;;;;;;;14.37;12.40;;;20.70;91.00;;;;;;5037666;28;20244;-89
2021/06/30 05:38:01;;;;;;;14.17;12.13;;;20.60;91.00;;;;;;5031421;28;20676;-86
2021/06/30 05:40:35;;;;;;;14.13;11.30;;;20.40;92.20;;;;;;5027543;28;20204;-85
2021/06/30 05:43:09;;;;;;;14.03;11.87;;;20.30;92.40;;;;;;5034025;28;20210;-84
2021/06/30 05:45:40;;;;;;;13.90;11.87;;;20.30;92.70;;;;;;5042508;28;20210;-88
2021/06/30 05:48:09;;;;;;;16.23;12.53;;;20.30;92.90;;;;;;5057305;28;20305;-87
2021/06/30 05:50:39;;;;;;;12.83;11.53;;;20.40;92.80;;;;;;5046575;28;20256;-86
2021/06/30 05:53:09;;;;;;;13.87;12.50;;;20.40;93.30;;;;;;5047152;28;20194;-87
2021/06/30 05:55:40;;;;;;;15.67;12.93;;;20.50;93.00;;;;;;5056451;28;20209;-86
2021/06/30 05:58:11;;;;;;;12.37;11.07;;;20.50;93.60;;;;;;5058653;28;20200;-86
2021/06/30 06:00:42;;;;;;;14.53;12.10;;;20.60;93.50;;;;;;5165860;22;20213;-88
2021/06/30 06:03:16;;;;;;;14.40;11.77;;;20.60;93.40;;;;;;5051302;28;21249;-89
2021/06/30 06:05:45;;;;;;;15.27;12.57;;;20.70;93.10;;;;;;5055141;28;20220;-86
2021/06/30 06:08:14;;;;;;;14.23;12.57;;;20.70;93.10;;;;;;5054305;28;20200;-84
2021/06/30 06:10:45;;;;;;;15.00;12.97;;;20.70;93.40;;;;;;5057563;28;20278;-88
2021/06/30 06:13:15;;;;;;;14.27;12.73;;;20.70;94.50;;;;;;5047737;28;20291;-82
2021/06/30 06:15:45;;;;;;;14.13;12.97;;;20.60;95.30;;;;;;5039344;28;20206;-84
2021/06/30 06:18:14;;;;;;;15.93;14.43;;;20.50;96.10;;;;;;5041014;28;20645;-84
2021/06/30 06:20:45;;;;;;;15.93;14.20;;;20.60;96.50;;;;;;5045749;28;20510;-86
2021/06/30 06:23:23;;;;;;;16.17;14.57;;;20.60;96.20;;;;;;5052651;28;20209;-84
2021/06/30 06:25:58;;;;;;;16.57;14.93;;;20.70;97.30;;;;;;5045052;28;20203;-85
2021/06/30 06:28:31;;;;;;;16.27;14.80;;;20.70;99.20;;;;;;5050294;28;20186;-86
2021/06/30 06:31:49;;;;;;;16.43;14.77;;;20.70;96.80;;;;;;5035936;28;20229;-85
2021/06/30 06:34:40;;;;;;;16.33;14.60;;;20.70;97.60;;;;;;5032848;28;20222;-88
2021/06/30 06:37:23;;;;;;;16.33;14.83;;;20.60;96.60;;;;;;5026502;28;20648;-89
2021/06/30 06:40:05;;;;;;;17.30;15.60;;;20.60;97.60;;;;;;5008264;28;20294;-86
2021/06/30 06:43:03;;;;;;;16.77;15.13;;;20.60;98.40;;;;;;5017341;28;20198;-88
2021/06/30 06:45:41;;;;;;;16.90;15.23;;;20.60;98.10;;;;;;5024260;28;20218;-87
2021/06/30 06:48:39;;;;;;;16.90;15.33;;;20.50;99.90;;;;;;5019174;28;20211;-89
2021/06/30 06:51:13;;;;;;;16.93;15.30;;;20.40;99.90;;;;;;5015706;28;20230;-84
2021/06/30 06:53:42;;;;;;;17.17;15.57;;;20.50;99.90;;;;;;5021106;28;20219;-83
2021/06/30 06:56:30;;;;;;;16.53;14.90;;;20.60;98.70;;;;;;5007947;28;20218;-85
2021/06/30 06:59:07;;;;;;;17.30;15.47;;;20.70;98.80;;;;;;5012978;28;20908;-85
2021/06/30 07:01:43;;;;;;;16.23;14.73;;;20.80;97.20;;;;;;5011668;28;20241;-87
2021/06/30 07:04:13;;;;;;;15.37;13.97;;;21.10;95.80;;;;;;5010812;28;20207;-86
2021/06/30 07:06:55;;;;;;;14.55;13.25;;;21.50;95.50;;;;;;5013059;28;20222;-87
2021/06/30 07:09:27;;;;;;;16.95;13.63;;;21.80;93.30;;;;;;5013144;28;20231;-87
2021/06/30 07:12:12;;;;;;;14.23;12.88;;;22.10;92.50;;;;;;5016781;28;20191;-87
2021/06/30 07:14:50;;;;;;;15.43;13.98;;;22.40;91.40;;;;;;5015214;28;20213;-84
2021/06/30 07:17:37;;;;;;;14.10;12.88;;;22.70;91.10;;;;;;5013584;28;20214;-86
2021/06/30 07:20:10;;;;;;;15.63;13.93;;;23.00;90.80;;;;;;5003366;28;20267;-85
2021/06/30 07:23:04;;;;;;;14.95;13.48;;;23.30;90.40;;;;;;5020337;28;20213;-85
2021/06/30 07:25:45;;;;;;;14.55;13.00;;;23.50;90.00;;;;;;5013591;28;20203;-83
2021/06/30 07:31:13;;;;;;;14.70;12.98;;;24.20;89.00;;;;;;5019742;28;20463;-84
2021/06/30 07:33:54;;;;;;;14.75;13.45;;;24.30;88.60;;;;;;5010715;28;20214;-87
2021/06/30 07:36:30;;;;;;;15.38;13.82;;;24.40;88.30;;;;;;5002550;28;20203;-88
2021/06/30 07:39:07;;;;;;;14.35;12.57;;;24.40;88.30;;;;;;5003951;28;20317;-88
2021/06/30 07:41:38;;;;;;;13.95;12.68;;;24.40;88.20;;;;;;4998846;28;20209;-84
2021/06/30 07:44:24;;;;;;;14.32;13.05;;;24.40;88.00;;;;;;5008321;28;20500;-85
2021/06/30 07:46:53;;;;;;;13.75;12.23;;;24.40;87.90;;;;;;5007957;28;20214;-84
2021/06/30 07:49:31;;;;;;;13.52;12.23;;;24.50;88.20;;;;;;5007682;28;20274;-85
2021/06/30 07:52:00;;;;;;;13.63;12.43;;;24.60;87.90;;;;;;5009605;28;20257;-83
2021/06/30 07:54:46;;;;;;;12.48;11.30;;;24.70;87.80;;;;;;5001913;28;20468;-83
2021/06/30 07:57:16;;;;;;;13.25;12.05;;;24.40;88.00;;;;;;5003970;28;20579;-85
2021/06/30 08:00:06;;;;;;;15.65;12.23;;;24.30;88.40;;;;;;5017504;28;20218;-85
2021/06/30 08:05:31;;;;;;;12.60;11.38;;;24.10;89.10;;;;;;5023741;28;20233;-86
2021/06/30 08:08:18;;;;;;;13.05;11.18;;;24.20;88.50;;;;;;5029561;28;20199;-86
2021/06/30 08:17:30;;;;;;;11.40;10.20;;;24.50;87.90;;;;;;5361037;23;20256;-89
2021/06/30 08:19:59;;;;;;;10.98;9.85;;;24.80;87.90;;;;;;4924123;28;20213;-85
2021/06/30 08:22:29;;;;;;;9.55;8.73;;;25.20;87.30;;;;;;4929641;28;20304;-85
2021/06/30 08:25:02;;;;;;;9.75;8.85;;;25.60;86.40;;;;;;4942388;28;20629;-86
2021/06/30 08:27:34;;;;;;;9.30;8.48;;;25.80;86.00;;;;;;4944024;28;20213;-87
2021/06/30 08:30:06;;;;;;;9.75;8.85;;;26.10;86.10;;;;;;4931704;28;20196;-86
2021/06/30 08:32:37;;;;;;;10.05;9.02;;;26.30;85.60;;;;;;4943788;28;20198;-85
2021/06/30 08:35:07;;;;;;;9.80;8.15;;;26.40;85.40;;;;;;4912686;28;20209;-88
2021/06/30 08:37:43;;;;;;;8.90;8.10;;;26.50;85.00;;;;;;4938069;28;20340;-88
2021/06/30 08:40:15;;;;;;;9.73;8.93;;;26.40;85.00;;;;;;4928728;28;20219;-85
2021/06/30 08:42:46;;;;;;;8.63;7.72;;;26.30;84.90;;;;;;4925177;28;20277;-88
2021/06/30 08:45:15;;;;;;;8.90;8.07;;;26.10;84.90;;;;;;4925181;28;20240;-86
2021/06/30 08:47:46;;;;;;;9.18;8.15;;;26.20;84.70;;;;;;4933474;28;20450;-87
2021/06/30 08:50:15;;;;;;;12.68;8.55;;;26.40;84.90;;;;;;4942598;28;20455;-87
2021/06/30 08:52:48;;;;;;;8.73;7.90;;;26.70;84.80;;;;;;4950914;28;20531;-88
2021/06/30 08:55:44;;;;;;;9.18;8.27;;;27.00;84.50;;;;;;4919232;28;20225;-85
2021/06/30 08:58:17;;;;;;;10.32;7.20;;;27.20;84.20;;;;;;4952817;28;20335;-86
2021/06/30 09:00:49;;;;;;;9.32;6.75;;;27.20;83.90;;;;;;4950388;28;20220;-87
2021/06/30 09:03:20;;;;;;;7.28;6.50;;;27.30;83.50;;;;;;4938979;28;20238;-87
2021/06/30 09:06:11;;;;;;;7.60;6.85;;;27.60;83.30;;;;;;4929745;28;20249;-86
2021/06/30 09:09:04;;;;;;;8.43;6.85;;;27.70;82.60;;;;;;4937943;28;20264;-86
2021/06/30 09:11:55;;;;;;;7.20;6.25;;;27.90;82.50;;;;;;4933768;28;21008;-89
2021/06/30 09:14:29;;;;;;;6.97;6.30;;;28.10;81.30;;;;;;4937146;28;20252;-88
2021/06/30 09:17:08;;;;;;;7.20;5.68;;;28.10;81.10;;;;;;4939191;28;20465;-84
2021/06/30 09:20:04;;;;;;;6.00;5.40;;;28.40;81.30;;;;;;4947993;28;20745;-87
2021/06/30 09:22:50;;;;;;;6.28;5.78;;;28.60;80.60;;;;;;4945289;28;20221;-88
2021/06/30 09:25:34;;;;;;;6.72;6.13;;;28.60;81.40;;;;;;4954087;28;20677;-86
2021/06/30 09:28:17;;;;;;;6.97;6.32;;;28.70;80.80;;;;;;4944747;28;20200;-88
2021/06/30 09:30:58;;;;;;;6.53;5.90;;;28.90;80.00;;;;;;4940415;28;20332;-88
2021/06/30 09:33:47;;;;;;;8.32;5.88;;;29.00;80.10;;;;;;4941373;28;20212;-89
2021/06/30 10:45:40;;;;;;;7.18;6.63;;;29.80;79.10;;;;;;4870209;29;20527;-88
2021/06/30 10:49:12;;;;;;;8.15;7.38;;;30.20;79.20;;;;;;4859991;29;20208;-88
2021/06/30 11:19:00;;;;;;;8.65;7.80;;;29.00;78.40;;;;;;4898800;29;20215;-89
2021/06/30 11:21:45;;;;;;;11.05;8.32;;;29.00;79.00;;;;;;4887331;29;20200;-88
2021/06/30 11:24:49;;;;;;;8.95;8.15;;;29.20;79.00;;;;;;4896626;29;20199;-87
2021/06/30 11:27:47;;;;;;;9.52;8.63;;;29.40;79.20;;;;;;4902895;29;20195;-89
2021/06/30 11:30:37;;;;;;;9.95;8.60;;;29.40;78.90;;;;;;4902919;29;20203;-88
2021/06/30 11:33:33;;;;;;;9.38;8.65;;;29.30;79.20;;;;;;4900885;29;20219;-86
2021/06/30 11:36:11;;;;;;;9.75;8.85;;;29.50;79.00;;;;;;4896566;29;20208;-88
2021/06/30 11:38:45;;;;;;;9.95;8.98;;;29.90;79.00;;;;;;4899288;29;20192;-85
2021/06/30 11:41:22;;;;;;;9.80;8.90;;;30.00;78.50;;;;;;5018931;23;20234;-88
2021/06/30 11:43:58;;;;;;;10.30;9.07;;;30.10;78.20;;;;;;4936474;28;20440;-90
2021/06/30 11:46:31;;;;;;;9.68;8.75;;;30.20;78.20;;;;;;4933773;28;20212;-85
2021/06/30 11:49:24;;;;;;;10.20;9.02;;;30.10;78.10;;;;;;4904935;29;20313;-84
2021/06/30 11:51:57;;;;;;;10.00;9.05;;;29.80;78.90;;;;;;4900008;28;20552;-86
2021/06/30 11:54:30;;;;;;;9.90;9.02;;;29.50;79.20;;;;;;4909243;29;20218;-85
2021/06/30 11:57:16;;;;;;;9.82;9.00;;;29.30;79.80;;;;;;4916317;28;20220;-86
2021/06/30 12:00:05;;;;;;;9.25;8.45;;;29.40;79.90;;;;;;4919192;28;20202;-86
2021/06/30 12:02:55;;;;;;;9.75;8.85;;;29.50;80.00;;;;;;4935264;28;20261;-86
2021/06/30 12:05:43;;;;;;;9.63;8.70;;;29.40;79.90;;;;;;4956561;23;20202;-85
2021/06/30 12:08:13;;;;;;;10.43;9.40;;;29.00;80.20;;;;;;4873081;29;20782;-87
2021/06/30 12:10:46;;;;;;;10.27;9.27;;;28.90;80.50;;;;;;4865857;29;20678;-86
2021/06/30 12:13:23;;;;;;;11.07;9.65;;;28.50;80.60;;;;;;4888312;29;20211;-88
2021/06/30 12:16:14;;;;;;;10.20;9.30;;;28.30;80.90;;;;;;4877789;29;20320;-87
2021/06/30 12:18:56;;;;;;;11.30;10.30;;;28.30;81.30;;;;;;4874253;29;20502;-85
2021/06/30 12:21:35;;;;;;;11.20;10.27;;;28.10;81.20;;;;;;4876551;29;20215;-85
2021/06/30 12:24:25;;;;;;;12.13;11.07;;;28.00;81.60;;;;;;4876592;29;20203;-87
2021/06/30 12:29:56;;;;;;;12.20;10.98;;;28.00;82.20;;;;;;4878143;29;21424;-86
2021/06/30 12:35:15;;;;;;;13.30;11.82;;;27.60;82.50;;;;;;4879585;29;20220;-86
2021/06/30 12:37:57;;;;;;;12.25;11.15;;;27.60;82.60;;;;;;4879826;29;20428;-86
2021/06/30 12:40:50;;;;;;;11.85;10.75;;;27.60;82.30;;;;;;4881177;29;20380;-87
2021/06/30 12:46:21;;;;;;;12.02;10.85;;;28.80;82.20;;;;;;4863017;29;21183;-86
2021/06/30 12:48:54;;;;;;;13.55;12.30;;;29.40;81.70;;;;;;4872005;29;20207;-86
2021/06/30 12:51:26;;;;;;;13.63;12.52;;;29.90;81.20;;;;;;4870840;29;20231;-85
2021/06/30 12:54:04;;;;;;;14.32;13.15;;;30.20;80.30;;;;;;4868840;29;20321;-86
2021/06/30 12:56:34;;;;;;;13.63;12.45;;;30.40;79.30;;;;;;4859089;29;20249;-87
2021/06/30 12:59:13;;;;;;;14.55;13.15;;;30.50;79.40;;;;;;4862718;29;20230;-87
2021/06/30 13:01:45;;;;;;;14.60;13.27;;;30.50;79.00;;;;;;4856827;29;20207;-87
2021/06/30 13:04:31;;;;;;;14.50;13.20;;;30.30;79.30;;;;;;4876207;29;20352;-85
2021/06/30 13:07:04;;;;;;;14.93;13.52;;;30.20;79.10;;;;;;4870512;29;20211;-86
2021/06/30 13:09:36;;;;;;;14.35;13.13;;;30.30;79.40;;;;;;4879097;29;20216;-86
2021/06/30 13:12:09;;;;;;;14.63;13.32;;;30.20;79.60;;;;;;4868435;29;20544;-85
2021/06/30 13:14:40;;;;;;;14.90;13.50;;;30.10;79.60;;;;;;4869643;29;20351;-85
2021/06/30 13:17:12;;;;;;;15.40;13.85;;;30.30;79.30;;;;;;4861043;29;20212;-87
2021/06/30 13:19:52;;;;;;;14.57;13.43;;;30.50;79.20;;;;;;4871599;29;20215;-85
2021/06/30 13:22:27;;;;;;;14.07;12.98;;;30.90;78.20;;;;;;4873169;29;20204;-87
2021/06/30 13:25:00;;;;;;;14.20;13.05;;;30.90;78.30;;;;;;4876436;29;20216;-85
2021/06/30 13:27:39;;;;;;;13.95;12.73;;;31.00;78.20;;;;;;4863946;29;20212;-85
2021/06/30 13:35:54;;;;;;;14.38;13.18;;;30.90;77.50;;;;;;4890583;29;20198;-87
2021/06/30 13:38:30;;;;;;;14.88;13.63;;;31.30;78.10;;;;;;4889153;29;20279;-86
2021/06/30 13:41:01;;;;;;;13.90;12.60;;;31.90;77.30;;;;;;4877663;29;20209;-88
2021/06/30 13:43:36;;;;;;;12.93;11.82;;;31.90;76.10;;;;;;4873327;29;20318;-85
2021/06/30 13:46:13;;;;;;;12.82;11.70;;;32.00;75.80;;;;;;4877361;29;20203;-87
2021/06/30 13:48:43;;;;;;;12.93;11.93;;;32.00;75.60;;;;;;4886918;29;20200;-87
2021/06/30 13:51:15;;;;;;;13.45;12.30;;;31.80;75.10;;;;;;4882683;29;20204;-86
2021/06/30 13:53:46;;;;;;;12.95;11.95;;;32.00;74.80;;;;;;4886515;29;20712;-87
2021/06/30 13:56:16;;;;;;;12.50;11.30;;;31.90;74.80;;;;;;4889398;29;20302;-85
2021/06/30 13:58:46;;;;;;;10.95;9.95;;;32.60;74.70;;;;;;4882522;29;20308;-86
2021/06/30 14:01:18;;;;;;;11.00;10.20;;;33.50;73.80;;;;;;4883633;29;20219;-87
2021/06/30 14:03:48;;;;;;;10.93;10.00;;;33.90;72.90;;;;;;4886472;29;20681;-87
2021/06/30 14:06:19;;;;;;;10.10;9.30;;;33.50;72.30;;;;;;4883111;29;20323;-86
2021/06/30 14:08:48;;;;;;;10.38;9.38;;;32.70;72.50;;;;;;4882766;29;20256;-86
2021/06/30 14:11:18;;;;;;;9.70;9.00;;;32.10;73.30;;;;;;4891712;29;20208;-86
2021/06/30 14:13:48;;;;;;;9.15;8.52;;;32.40;73.10;;;;;;4881127;29;20347;-87
2021/06/30 14:16:17;;;;;;;8.82;8.00;;;32.90;73.00;;;;;;4874282;29;20212;-86
2021/06/30 14:18:47;;;;;;;8.32;7.65;;;34.20;71.80;;;;;;4883900;29;20232;-88
2021/06/30 14:21:18;;;;;;;7.47;6.97;;;34.90;70.40;;;;;;4894306;29;21138;-87
2021/06/30 14:23:48;;;;;;;8.13;7.43;;;35.30;69.00;;;;;;4896428;29;20223;-86
2021/06/30 14:26:17;;;;;;;8.00;7.30;;;34.90;67.90;;;;;;4887054;29;20243;-87
2021/06/30 14:28:46;;;;;;;8.25;7.50;;;34.00;68.90;;;;;;4895464;29;20268;-85
2021/06/30 14:31:19;;;;;;;7.45;6.85;;;34.50;69.50;;;;;;4879403;29;20212;-86
2021/06/30 14:33:48;;;;;;;9.13;6.50;;;35.10;68.70;;;;;;4895496;29;20467;-85
2021/06/30 14:36:21;;;;;;;6.88;6.22;;;36.40;67.40;;;;;;4881442;29;20227;-85
2021/06/30 14:39:04;;;;;;;6.90;6.30;;;37.00;65.00;;;;;;4876595;29;20267;-86
2021/06/30 14:41:34;;;;;;;6.63;6.05;;;36.10;64.00;;;;;;4875559;29;20263;-86
2021/06/30 14:44:09;;;;;;;6.07;5.47;;;35.70;64.30;;;;;;4892122;29;20387;-87
2021/06/30 14:46:41;;;;;;;5.65;5.25;;;35.90;64.60;;;;;;4879948;29;20321;-84
2021/06/30 14:49:10;;;;;;;5.18;4.68;;;36.10;63.10;;;;;;4873712;29;20200;-85
2021/06/30 14:51:42;;;;;;;5.30;4.80;;;36.00;62.80;;;;;;4879091;29;20220;-88
2021/06/30 14:54:15;;;;;;;5.35;4.95;;;36.40;62.10;;;;;;4886390;29;20458;-86
2021/06/30 14:56:45;;;;;;;5.00;4.60;;;36.80;61.80;;;;;;4891916;29;20242;-83
2021/06/30 14:59:17;;;;;;;5.82;4.20;;;36.60;61.50;;;;;;4881321;29;20227;-87
2021/06/30 15:01:46;;;;;;;4.72;3.97;;;36.70;60.30;;;;;;4869069;29;20223;-88
2021/06/30 15:04:17;;;;;;;4.20;3.90;;;36.70;60.10;;;;;;4880082;29;20247;-87
2021/06/30 15:06:54;;;;;;;4.13;3.83;;;36.90;60.20;;;;;;4873167;29;20276;-88
2021/06/30 15:09:25;;;;;;;6.63;4.18;;;37.30;59.90;;;;;;4879490;29;20631;-86
2021/06/30 15:11:59;;;;;;;4.63;4.07;;;37.40;58.60;;;;;;4896185;29;20226;-84
2021/06/30 15:14:32;;;;;;;4.20;3.95;;;37.50;57.70;;;;;;4868147;29;20246;-87